| Ora | Descriere | Temp | Se simte | Precipitatii | Umiditate | Vant |
|---|---|---|---|---|---|---|
| 00:00 | Senin | 12.3° | 11.1° | 0% | 64% | S 12.2 KM/H |
| 01:00 | Senin | 11.4° | 10.1° | 0% | 73% | S 11.5 KM/H |
| 02:00 | Senin | 10.5° | 9.1° | 0% | 79% | S 11.2 KM/H |
| 03:00 | Senin | 9.8° | 8.5° | 0% | 81% | SSE 9.4 KM/H |
| 04:00 | Senin | 9.1° | 7.7° | 0% | 81% | SSE 9 KM/H |
| 05:00 | Senin | 8.7° | 7.1° | 0% | 81% | S 9.7 KM/H |
| 06:00 | Senin | 8.4° | 6.9° | 0% | 83% | S 9 KM/H |
| 07:00 | Senin | 10.6° | 9.8° | 0% | 80% | S 7.2 KM/H |
| 08:00 | Senin | 13.4° | 12.5° | 0% | 73% | S 11.5 KM/H |
| 09:00 | Senin | 15.7° | 15.7° | 0% | 67% | S 13.7 KM/H |
| 10:00 | Senin | 18.1° | 18.1° | 0% | 61% | SSW 16.2 KM/H |
| 11:00 | Senin | 20.2° | 20.2° | 0% | 54% | S 16.9 KM/H |
| 12:00 | Senin | 21.8° | 21.8° | 0% | 48% | S 17.3 KM/H |
| 13:00 | Senin | 22.9° | 24.5° | 0% | 43% | S 17.3 KM/H |
| 14:00 | Senin | 23.6° | 24.6° | 0% | 39% | S 17.3 KM/H |
| 15:00 | Senin | 23.9° | 24.5° | 0% | 36% | S 16.9 KM/H |
| 16:00 | Senin | 24° | 24.5° | 0% | 35% | S 17.3 KM/H |
| 17:00 | Senin | 23.7° | 24.4° | 0% | 35% | SSE 18.4 KM/H |
| 18:00 | Senin | 23.1° | 24.2° | 0% | 37% | SSE 17.6 KM/H |
| 19:00 | Senin | 21.5° | 21.5° | 0% | 45% | SSE 16.6 KM/H |
| 20:00 | Senin | 17° | 17° | 0% | 56% | SE 19.1 KM/H |
| 21:00 | Senin | 14.5° | 13.5° | 0% | 61% | SSE 14.8 KM/H |
| 22:00 | Senin | 14° | 12.8° | 0% | 64% | SSE 15.1 KM/H |
| 23:00 | 13.5° | 11.9° | 0% | 63% | SSE 18.7 KM/H |